createdAt,value
2023-03-26T00:02:31.150Z,9.28
2023-03-26T00:05:49.124Z,9.32
2023-03-26T00:09:06.878Z,9.24
2023-03-26T00:12:23.261Z,9.19
2023-03-26T00:15:41.965Z,9.28
2023-03-26T00:18:58.433Z,9.16
2023-03-26T00:22:17.574Z,9.23
2023-03-26T00:25:34.983Z,9.22
2023-03-26T00:28:52.472Z,9.15
2023-03-26T00:32:08.872Z,9.32
2023-03-26T00:35:25.558Z,9.23
2023-03-26T00:38:42.673Z,9.32
2023-03-26T00:41:59.736Z,9.28
2023-03-26T00:45:19.762Z,9.32
2023-03-26T00:48:44.939Z,9.31
2023-03-26T00:51:56.732Z,9.31
2023-03-26T00:55:14.895Z,9.26
2023-03-26T00:58:31.944Z,9.28
2023-03-26T01:01:48.678Z,9.22
2023-03-26T01:05:22.075Z,9.13
2023-03-26T01:08:43.649Z,9.20
2023-03-26T01:12:00.343Z,9.23
2023-03-26T01:15:19.017Z,9.27
2023-03-26T01:18:41.286Z,9.25
2023-03-26T01:21:58.670Z,9.17
2023-03-26T01:25:16.327Z,9.26
2023-03-26T01:28:36.239Z,9.34
2023-03-26T01:32:00.042Z,9.32
2023-03-26T01:35:33.025Z,9.31
2023-03-26T01:38:54.158Z,9.30
2023-03-26T01:42:14.681Z,9.34
2023-03-26T01:45:36.398Z,9.19
2023-03-26T01:48:54.765Z,9.18
2023-03-26T01:52:16.264Z,9.04
2023-03-26T01:55:38.124Z,8.79
2023-03-26T01:59:06.643Z,8.68
2023-03-26T02:02:27.951Z,8.64
2023-03-26T02:05:48.242Z,8.41
2023-03-26T02:09:09.384Z,8.37
2023-03-26T02:12:27.543Z,8.28
2023-03-26T02:15:43.965Z,8.18
2023-03-26T02:19:01.257Z,8.13
2023-03-26T02:22:18.732Z,8.07
2023-03-26T02:25:36.846Z,8.05
2023-03-26T02:28:53.822Z,8.00
2023-03-26T02:32:12.338Z,7.95
2023-03-26T02:35:29.490Z,7.94
2023-03-26T02:38:48.221Z,7.92
2023-03-26T02:42:04.906Z,7.78
2023-03-26T02:45:23.605Z,7.76
2023-03-26T02:48:58.148Z,7.69
2023-03-26T02:52:17.092Z,7.67
2023-03-26T02:55:34.182Z,7.71
2023-03-26T02:58:52.181Z,7.70
2023-03-26T03:02:08.513Z,7.80
2023-03-26T03:05:27.260Z,7.83
2023-03-26T03:08:55.536Z,7.83
2023-03-26T03:12:28.243Z,7.80
2023-03-26T03:15:45.408Z,7.86
2023-03-26T03:19:02.942Z,7.88
2023-03-26T03:22:18.913Z,7.86
2023-03-26T03:25:35.239Z,7.92
2023-03-26T03:28:51.597Z,7.92
2023-03-26T03:32:07.760Z,7.96
2023-03-26T03:35:26.715Z,8.01
2023-03-26T03:38:44.914Z,8.06
2023-03-26T03:42:03.278Z,8.10
2023-03-26T03:45:21.481Z,8.17
2023-03-26T03:48:45.148Z,8.15
2023-03-26T03:52:02.604Z,8.15
2023-03-26T03:55:20.892Z,8.23
2023-03-26T03:58:38.870Z,8.24
2023-03-26T04:01:56.921Z,8.25
2023-03-26T04:05:16.657Z,8.29
2023-03-26T04:08:35.103Z,8.33
2023-03-26T04:11:53.174Z,8.31
2023-03-26T04:15:13.282Z,8.39
2023-03-26T04:18:31.267Z,8.38
2023-03-26T04:21:48.102Z,8.39
2023-03-26T04:25:06.190Z,8.38
2023-03-26T04:28:32.133Z,8.37
2023-03-26T04:32:09.204Z,8.37
2023-03-26T04:35:26.676Z,8.37
2023-03-26T04:38:50.068Z,8.39
2023-03-26T04:42:09.543Z,8.38
2023-03-26T04:45:30.624Z,8.37
2023-03-26T04:48:44.844Z,8.39
2023-03-26T04:52:01.588Z,8.36
2023-03-26T04:55:40.182Z,8.36
2023-03-26T04:58:58.845Z,8.37
2023-03-26T05:02:19.198Z,8.36
2023-03-26T05:05:38.538Z,8.39
2023-03-26T05:08:56.544Z,8.45
2023-03-26T05:12:22.514Z,8.45
2023-03-26T05:15:49.662Z,8.48
2023-03-26T05:19:08.267Z,8.37
2023-03-26T05:22:24.520Z,8.45
2023-03-26T05:25:42.845Z,8.40
2023-03-26T05:29:08.181Z,8.42
2023-03-26T05:32:29.282Z,8.41
2023-03-26T05:35:46.018Z,8.41
2023-03-26T05:39:03.229Z,8.41
2023-03-26T05:42:37.460Z,8.40
2023-03-26T05:46:05.525Z,8.45
2023-03-26T05:49:22.188Z,8.51
2023-03-26T05:52:39.252Z,8.58
2023-03-26T05:55:59.053Z,8.58
2023-03-26T05:59:33.876Z,8.63
2023-03-26T06:03:09.791Z,8.82
2023-03-26T06:06:29.979Z,9.02
2023-03-26T06:09:48.436Z,9.03
2023-03-26T06:13:04.813Z,9.12
2023-03-26T06:16:27.262Z,9.00
2023-03-26T06:19:43.686Z,9.06
2023-03-26T06:23:01.863Z,9.17
2023-03-26T06:26:20.921Z,9.23
2023-03-26T06:29:39.035Z,9.24
2023-03-26T06:33:21.108Z,9.31
2023-03-26T06:37:04.660Z,9.26
2023-03-26T06:40:37.216Z,9.41
2023-03-26T06:44:09.942Z,9.58
2023-03-26T07:03:41.938Z,9.92
2023-03-26T07:11:13.128Z,9.91
2023-03-26T07:14:33.653Z,10.18
2023-03-26T07:17:50.450Z,10.30
2023-03-26T07:21:13.816Z,10.14
2023-03-26T07:24:32.466Z,10.15
2023-03-26T07:28:00.218Z,10.32
2023-03-26T07:31:30.575Z,10.36
2023-03-26T07:35:00.981Z,10.38
2023-03-26T07:38:42.605Z,11.60
2023-03-26T07:42:32.000Z,12.73
2023-03-26T07:46:14.943Z,13.22
2023-03-26T07:49:35.031Z,14.10
2023-03-26T07:52:55.417Z,14.69
2023-03-26T07:56:35.254Z,15.25
2023-03-26T07:59:58.492Z,15.21
2023-03-26T08:03:58.493Z,15.13
2023-03-26T08:07:29.010Z,15.13
2023-03-26T08:11:46.925Z,14.98
2023-03-26T08:15:10.063Z,15.82
2023-03-26T08:18:42.267Z,15.85
2023-03-26T08:22:03.722Z,15.94
2023-03-26T08:25:37.439Z,16.56
2023-03-26T08:29:04.872Z,16.59
2023-03-26T08:32:28.144Z,15.44
2023-03-26T08:35:47.238Z,14.31
2023-03-26T08:39:05.954Z,13.85
2023-03-26T08:43:11.966Z,13.60
2023-03-26T08:47:23.066Z,13.63
2023-03-26T08:51:32.373Z,13.25
2023-03-26T08:55:15.015Z,13.22
2023-03-26T08:59:13.641Z,12.89
2023-03-26T09:03:02.775Z,12.85
2023-03-26T09:06:57.244Z,13.26
2023-03-26T09:10:55.304Z,14.05
2023-03-26T09:14:39.935Z,14.89
2023-03-26T09:18:23.274Z,15.75
2023-03-26T09:22:28.716Z,16.05
2023-03-26T09:26:11.308Z,16.61
2023-03-26T09:30:11.054Z,15.83
2023-03-26T09:34:03.603Z,16.08
2023-03-26T09:37:32.094Z,15.91
2023-03-26T09:40:53.615Z,15.49
2023-03-26T09:45:03.492Z,15.53
2023-03-26T09:48:55.117Z,15.40
2023-03-26T09:52:36.857Z,15.38
2023-03-26T09:56:16.634Z,15.07
2023-03-26T10:00:03.249Z,15.00
2023-03-26T10:03:42.182Z,14.61
2023-03-26T10:07:05.653Z,14.23
2023-03-26T10:10:31.739Z,13.96
2023-03-26T10:13:59.426Z,13.90
2023-03-26T10:17:30.117Z,13.88
2023-03-26T10:21:10.001Z,14.50
2023-03-26T10:24:57.031Z,14.54
2023-03-26T10:28:37.696Z,14.20
2023-03-26T10:31:59.231Z,13.73
2023-03-26T10:35:42.886Z,13.68
2023-03-26T10:39:37.741Z,13.57
2023-03-26T10:43:22.636Z,13.20
2023-03-26T10:47:23.773Z,13.23
2023-03-26T10:51:08.385Z,13.27
2023-03-26T10:54:35.604Z,13.21
2023-03-26T10:57:57.101Z,13.10
2023-03-26T11:01:21.297Z,12.90
2023-03-26T11:04:50.510Z,12.80
2023-03-26T11:08:12.019Z,12.86
2023-03-26T11:11:35.403Z,12.55
2023-03-26T11:15:00.437Z,12.68
2023-03-26T11:18:23.838Z,12.73
2023-03-26T11:21:48.933Z,12.81
2023-03-26T11:25:36.255Z,13.03
2023-03-26T11:29:31.378Z,13.39
2023-03-26T11:32:44.557Z,13.50
2023-03-26T11:36:04.350Z,13.15
2023-03-26T11:39:27.544Z,13.28
2023-03-26T11:42:44.357Z,13.10
2023-03-26T11:46:01.032Z,13.11
2023-03-26T11:49:20.472Z,13.16
2023-03-26T11:52:37.680Z,13.23
2023-03-26T11:56:00.323Z,13.03
2023-03-26T11:59:21.755Z,13.09
2023-03-26T12:02:45.866Z,13.13
2023-03-26T12:06:06.796Z,12.99
2023-03-26T12:09:28.141Z,13.06
2023-03-26T12:12:49.734Z,13.20
2023-03-26T12:16:17.226Z,13.25
2023-03-26T12:19:34.497Z,13.40
2023-03-26T12:22:53.008Z,13.36
2023-03-26T12:26:24.029Z,13.27
2023-03-26T12:29:43.653Z,13.27
2023-03-26T12:33:05.893Z,13.09
2023-03-26T12:36:34.262Z,13.19
2023-03-26T12:40:07.191Z,13.24
2023-03-26T12:44:49.858Z,13.23
2023-03-26T12:47:56.432Z,13.27
2023-03-26T12:49:58.356Z,13.30
2023-03-26T12:53:49.386Z,13.26
2023-03-26T12:57:19.130Z,13.18
2023-03-26T13:00:47.395Z,13.10
2023-03-26T13:04:42.343Z,12.98
2023-03-26T13:08:20.086Z,12.92
2023-03-26T13:11:44.598Z,13.01
2023-03-26T13:15:30.641Z,13.09
2023-03-26T13:18:55.635Z,12.93
2023-03-26T13:22:25.446Z,12.92
2023-03-26T13:25:49.187Z,12.82
2023-03-26T13:29:12.110Z,12.73
2023-03-26T13:32:34.842Z,12.55
2023-03-26T13:36:06.045Z,12.67
2023-03-26T13:39:39.741Z,12.72
2023-03-26T13:43:09.795Z,12.83
2023-03-26T13:46:35.606Z,12.91
2023-03-26T13:49:57.242Z,12.96
2023-03-26T13:53:21.609Z,12.84
2023-03-26T13:56:45.746Z,12.71
2023-03-26T14:00:07.169Z,12.78
2023-03-26T14:03:35.018Z,12.95
2023-03-26T14:06:58.164Z,12.89
2023-03-26T14:10:55.156Z,12.92
2023-03-26T14:14:40.864Z,12.97
2023-03-26T14:18:19.799Z,13.08
2023-03-26T14:22:16.505Z,12.93
2023-03-26T14:25:52.524Z,13.02
2023-03-26T14:29:56.905Z,13.10
2023-03-26T14:33:15.824Z,13.13
2023-03-26T14:36:52.058Z,13.10
2023-03-26T14:40:48.622Z,13.10
2023-03-26T14:45:01.333Z,12.99
2023-03-26T14:48:40.613Z,13.02
2023-03-26T14:52:17.265Z,13.01
2023-03-26T14:56:09.839Z,12.96
2023-03-26T15:00:21.999Z,12.99
2023-03-26T15:04:22.275Z,12.89
2023-03-26T15:08:16.027Z,12.87
2023-03-26T15:11:49.690Z,12.84
2023-03-26T15:16:10.361Z,12.88
2023-03-26T15:20:12.506Z,12.93
2023-03-26T15:24:23.244Z,12.96
2023-03-26T15:28:25.773Z,12.95
2023-03-26T15:32:36.060Z,13.03
2023-03-26T15:36:20.190Z,12.96
2023-03-26T15:40:03.768Z,13.00
2023-03-26T15:43:24.441Z,12.97
2023-03-26T15:47:03.734Z,12.98
2023-03-26T15:50:38.133Z,13.02
2023-03-26T15:54:01.473Z,13.01
2023-03-26T15:57:31.813Z,12.99
2023-03-26T16:00:58.031Z,12.93
2023-03-26T16:04:29.441Z,12.95
2023-03-26T16:08:03.906Z,12.93
2023-03-26T16:11:21.185Z,12.91
2023-03-26T16:14:54.353Z,12.89
2023-03-26T16:18:42.116Z,12.87
2023-03-26T16:22:10.668Z,12.89
2023-03-26T16:25:36.807Z,12.79
2023-03-26T16:29:27.644Z,12.77
2023-03-26T16:32:49.024Z,12.71
2023-03-26T16:36:26.895Z,12.66
2023-03-26T16:39:56.080Z,12.60
2023-03-26T16:43:34.721Z,12.58
2023-03-26T16:47:01.971Z,12.49
2023-03-26T16:50:28.595Z,12.46
2023-03-26T16:53:57.954Z,12.41
2023-03-26T16:57:28.152Z,12.35
2023-03-26T17:01:04.743Z,12.32
2023-03-26T17:04:28.766Z,12.28
2023-03-26T17:07:51.616Z,12.23
2023-03-26T17:11:15.175Z,12.18
2023-03-26T17:14:52.592Z,12.13
2023-03-26T17:18:33.931Z,12.03
2023-03-26T17:21:59.391Z,11.98
2023-03-26T17:25:27.970Z,11.79
2023-03-26T17:29:07.361Z,11.59
2023-03-26T17:32:25.222Z,11.45
2023-03-26T17:35:54.111Z,11.36
2023-03-26T17:39:50.964Z,11.20
2023-03-26T17:43:17.351Z,11.05
2023-03-26T17:46:42.238Z,10.93
2023-03-26T17:50:05.244Z,10.78
2023-03-26T17:53:29.342Z,10.63
2023-03-26T17:56:47.858Z,10.45
2023-03-26T18:00:08.996Z,10.30
2023-03-26T18:03:34.511Z,10.35
2023-03-26T18:07:17.943Z,10.30
2023-03-26T18:10:57.857Z,10.12
2023-03-26T18:14:57.470Z,10.11
2023-03-26T18:18:23.484Z,10.09
2023-03-26T18:21:44.944Z,10.08
2023-03-26T18:25:06.248Z,10.14
2023-03-26T18:28:24.584Z,10.17
2023-03-26T18:31:44.290Z,10.08
2023-03-26T18:35:05.550Z,10.00
2023-03-26T18:38:35.954Z,9.97
2023-03-26T18:41:49.223Z,10.04
2023-03-26T18:45:11.220Z,10.19
2023-03-26T18:48:30.573Z,10.29
2023-03-26T18:51:56.660Z,10.41
2023-03-26T18:55:10.492Z,10.52
2023-03-26T18:58:38.125Z,10.55
2023-03-26T19:01:56.398Z,10.67
2023-03-26T19:05:17.593Z,10.74
2023-03-26T19:08:35.522Z,10.83
2023-03-26T19:11:53.932Z,10.88
2023-03-26T19:15:15.840Z,10.89
2023-03-26T19:18:35.722Z,10.91
2023-03-26T19:21:53.412Z,10.87
2023-03-26T19:25:15.480Z,10.91
2023-03-26T19:28:37.142Z,10.93
2023-03-26T19:31:57.796Z,10.94
2023-03-26T19:35:27.814Z,10.95
2023-03-26T19:38:54.264Z,10.96
2023-03-26T19:42:13.110Z,11.02
2023-03-26T19:45:31.797Z,11.00
2023-03-26T19:48:49.119Z,10.99
2023-03-26T19:52:20.838Z,10.98
2023-03-26T19:55:39.184Z,10.88
2023-03-26T19:58:56.308Z,10.90
2023-03-26T20:02:17.219Z,10.92
2023-03-26T20:05:38.767Z,10.94
2023-03-26T20:08:59.228Z,10.86
2023-03-26T20:12:17.025Z,10.78
2023-03-26T20:15:37.296Z,10.66
2023-03-26T20:18:57.650Z,10.60
2023-03-26T20:22:17.306Z,10.64
2023-03-26T20:25:38.019Z,10.56
2023-03-26T20:28:54.662Z,10.54
2023-03-26T20:32:12.625Z,10.50
2023-03-26T20:35:35.618Z,10.45
2023-03-26T20:38:52.624Z,10.32
2023-03-26T20:42:09.362Z,10.16
2023-03-26T20:45:29.115Z,10.01
2023-03-26T20:48:45.421Z,9.86
2023-03-26T20:52:02.083Z,9.77
2023-03-26T20:55:22.687Z,9.56
2023-03-26T20:58:40.124Z,9.52
2023-03-26T21:01:58.152Z,9.42
2023-03-26T21:05:21.240Z,9.35
2023-03-26T21:08:42.510Z,9.25
2023-03-26T21:12:07.905Z,9.22
2023-03-26T21:15:27.220Z,9.23
2023-03-26T21:18:42.913Z,9.14
2023-03-26T21:22:21.582Z,9.11
2023-03-26T21:25:45.479Z,9.04
2023-03-26T21:29:03.359Z,9.00
2023-03-26T21:32:22.278Z,8.97
2023-03-26T21:35:40.820Z,8.86
2023-03-26T21:38:59.776Z,8.77
2023-03-26T21:42:20.109Z,8.73
2023-03-26T21:45:38.781Z,8.72
2023-03-26T21:48:56.489Z,8.71
2023-03-26T21:52:17.218Z,8.74
2023-03-26T21:55:35.614Z,8.76
2023-03-26T21:58:58.979Z,8.77
2023-03-26T22:02:23.026Z,8.79
2023-03-26T22:05:46.007Z,8.74
2023-03-26T22:09:03.417Z,8.78
2023-03-26T22:12:20.115Z,8.74
2023-03-26T22:15:36.515Z,8.65
2023-03-26T22:18:55.942Z,8.53
2023-03-26T22:22:13.484Z,8.47
2023-03-26T22:25:32.012Z,8.49
2023-03-26T22:28:48.691Z,8.44
2023-03-26T22:32:04.962Z,8.37
2023-03-26T22:35:21.749Z,8.38
2023-03-26T22:38:40.444Z,8.37
2023-03-26T22:41:57.153Z,8.35
2023-03-26T22:45:15.711Z,8.35
2023-03-26T22:48:32.996Z,8.39
2023-03-26T22:51:51.084Z,8.40
2023-03-26T22:55:07.642Z,8.38
2023-03-26T22:58:25.337Z,8.42
2023-03-26T23:01:42.421Z,8.37
2023-03-26T23:04:58.790Z,8.31
2023-03-26T23:08:15.715Z,8.37
2023-03-26T23:11:32.481Z,8.40
2023-03-26T23:14:50.944Z,8.29
2023-03-26T23:18:07.855Z,8.33
2023-03-26T23:21:26.886Z,8.41
2023-03-26T23:24:43.167Z,8.29
2023-03-26T23:27:59.422Z,8.18
2023-03-26T23:31:19.169Z,8.26
2023-03-26T23:34:35.557Z,8.23
2023-03-26T23:37:52.120Z,8.25
2023-03-26T23:41:10.438Z,8.37
2023-03-26T23:44:26.864Z,8.40
2023-03-26T23:47:43.480Z,8.43
2023-03-26T23:51:04.491Z,8.42
2023-03-26T23:54:22.499Z,8.44
2023-03-26T23:57:38.812Z,8.48
